sensor_id;sensor_type;location;lat;lon;timestamp;P1;durP1;ratioP1;P2;durP2;ratioP2
13368;SDS011;6753;52.520;13.450;2023-02-22T00:00:01;1096.53;;;916.70;;
13368;SDS011;6753;52.520;13.450;2023-02-22T00:00:19;1096.00;;;917.78;;
13368;SDS011;6753;52.520;13.450;2023-02-22T00:00:32;1096.28;;;915.72;;
13368;SDS011;6753;52.520;13.450;2023-02-22T00:00:51;1092.15;;;916.53;;
13368;SDS011;6753;52.520;13.450;2023-02-22T00:01:05;1094.13;;;918.55;;
13368;SDS011;6753;52.520;13.450;2023-02-22T00:01:28;1090.15;;;916.08;;
13368;SDS011;6753;52.520;13.450;2023-02-22T00:01:45;1091.15;;;917.50;;
13368;SDS011;6753;52.520;13.450;2023-02-22T00:01:59;1093.32;;;915.83;;
13368;SDS011;6753;52.520;13.450;2023-02-22T00:02:19;1098.07;;;916.53;;
13368;SDS011;6753;52.520;13.450;2023-02-22T00:02:36;1092.13;;;913.22;;
13368;SDS011;6753;52.520;13.450;2023-02-22T00:02:47;1092.03;;;912.77;;
13368;SDS011;6753;52.520;13.450;2023-02-22T00:03:00;1086.85;;;912.30;;
13368;SDS011;6753;52.520;13.450;2023-02-22T00:03:14;1083.22;;;912.17;;
13368;SDS011;6753;52.520;13.450;2023-02-22T00:03:27;1079.75;;;911.33;;
13368;SDS011;6753;52.520;13.450;2023-02-22T00:03:41;1081.68;;;913.25;;
13368;SDS011;6753;52.520;13.450;2023-02-22T00:03:52;1081.90;;;913.45;;
13368;SDS011;6753;52.520;13.450;2023-02-22T00:04:04;1080.05;;;913.25;;
13368;SDS011;6753;52.520;13.450;2023-02-22T00:04:16;1078.95;;;913.00;;
13368;SDS011;6753;52.520;13.450;2023-02-22T00:04:30;1074.85;;;911.30;;
13368;SDS011;6753;52.520;13.450;2023-02-22T00:04:40;1075.15;;;909.63;;
13368;SDS011;6753;52.520;13.450;2023-02-22T00:04:51;1074.15;;;909.45;;
13368;SDS011;6753;52.520;13.450;2023-02-22T00:05:02;1076.57;;;909.45;;
13368;SDS011;6753;52.520;13.450;2023-02-22T00:05:13;1076.90;;;908.70;;
13368;SDS011;6753;52.520;13.450;2023-02-22T00:05:26;1078.68;;;909.05;;
13368;SDS011;6753;52.520;13.450;2023-02-22T00:05:37;1078.10;;;909.90;;
13368;SDS011;6753;52.520;13.450;2023-02-22T00:05:50;1076.50;;;908.55;;
13368;SDS011;6753;52.520;13.450;2023-02-22T00:06:03;1074.30;;;907.83;;
13368;SDS011;6753;52.520;13.450;2023-02-22T00:06:15;1070.68;;;906.88;;
13368;SDS011;6753;52.520;13.450;2023-02-22T00:06:28;1070.25;;;906.30;;
13368;SDS011;6753;52.520;13.450;2023-02-22T00:06:40;1067.63;;;906.80;;
13368;SDS011;6753;52.520;13.450;2023-02-22T00:06:53;1066.95;;;906.88;;
13368;SDS011;6753;52.520;13.450;2023-02-22T00:07:09;1063.80;;;906.33;;
13368;SDS011;6753;52.520;13.450;2023-02-22T00:07:20;1063.63;;;906.15;;
13368;SDS011;6753;52.520;13.450;2023-02-22T00:07:32;1063.55;;;905.22;;
13368;SDS011;6753;52.520;13.450;2023-02-22T00:07:45;1061.90;;;903.80;;
13368;SDS011;6753;52.520;13.450;2023-02-22T00:07:56;1058.32;;;901.92;;
13368;SDS011;6753;52.520;13.450;2023-02-22T00:08:07;1058.90;;;901.22;;
13368;SDS011;6753;52.520;13.450;2023-02-22T00:08:19;1057.53;;;899.70;;
13368;SDS011;6753;52.520;13.450;2023-02-22T00:08:33;1054.43;;;900.25;;
13368;SDS011;6753;52.520;13.450;2023-02-22T00:08:45;1054.50;;;899.67;;
13368;SDS011;6753;52.520;13.450;2023-02-22T00:08:57;1055.18;;;901.80;;
13368;SDS011;6753;52.520;13.450;2023-02-22T00:09:08;1055.95;;;900.85;;
13368;SDS011;6753;52.520;13.450;2023-02-22T00:09:20;1056.60;;;901.23;;
13368;SDS011;6753;52.520;13.450;2023-02-22T00:09:31;1059.50;;;899.33;;
13368;SDS011;6753;52.520;13.450;2023-02-22T00:09:41;1058.88;;;898.30;;
13368;SDS011;6753;52.520;13.450;2023-02-22T00:09:52;1062.57;;;897.60;;
13368;SDS011;6753;52.520;13.450;2023-02-22T00:10:04;1061.95;;;897.40;;
13368;SDS011;6753;52.520;13.450;2023-02-22T00:10:22;1055.18;;;897.17;;
13368;SDS011;6753;52.520;13.450;2023-02-22T00:10:34;1053.15;;;899.05;;
13368;SDS011;6753;52.520;13.450;2023-02-22T00:10:47;1054.72;;;899.33;;
13368;SDS011;6753;52.520;13.450;2023-02-22T00:11:01;1051.85;;;898.15;;
13368;SDS011;6753;52.520;13.450;2023-02-22T00:11:13;1055.20;;;899.45;;
13368;SDS011;6753;52.520;13.450;2023-02-22T00:11:25;1050.95;;;896.40;;
13368;SDS011;6753;52.520;13.450;2023-02-22T00:11:36;1043.60;;;893.03;;
13368;SDS011;6753;52.520;13.450;2023-02-22T00:11:47;1035.60;;;890.20;;
13368;SDS011;6753;52.520;13.450;2023-02-22T00:11:58;1029.30;;;888.85;;
13368;SDS011;6753;52.520;13.450;2023-02-22T00:12:09;1026.93;;;883.00;;
13368;SDS011;6753;52.520;13.450;2023-02-22T00:12:19;1019.97;;;878.77;;
13368;SDS011;6753;52.520;13.450;2023-02-22T00:12:30;1023.30;;;879.08;;
13368;SDS011;6753;52.520;13.450;2023-02-22T00:12:42;1024.47;;;878.90;;
13368;SDS011;6753;52.520;13.450;2023-02-22T00:12:53;1026.63;;;878.93;;
13368;SDS011;6753;52.520;13.450;2023-02-22T00:13:05;1028.68;;;879.88;;
13368;SDS011;6753;52.520;13.450;2023-02-22T00:13:17;1030.22;;;883.40;;
13368;SDS011;6753;52.520;13.450;2023-02-22T00:13:31;1030.13;;;883.17;;
13368;SDS011;6753;52.520;13.450;2023-02-22T00:13:43;1029.18;;;882.50;;
13368;SDS011;6753;52.520;13.450;2023-02-22T00:13:54;1029.18;;;883.20;;
13368;SDS011;6753;52.520;13.450;2023-02-22T00:14:06;1030.55;;;884.47;;
13368;SDS011;6753;52.520;13.450;2023-02-22T00:14:17;1028.80;;;883.97;;
13368;SDS011;6753;52.520;13.450;2023-02-22T00:14:29;1026.68;;;885.55;;
13368;SDS011;6753;52.520;13.450;2023-02-22T00:14:40;1027.93;;;887.77;;
13368;SDS011;6753;52.520;13.450;2023-02-22T00:14:51;1029.82;;;888.40;;
13368;SDS011;6753;52.520;13.450;2023-02-22T00:15:02;1025.40;;;888.95;;
13368;SDS011;6753;52.520;13.450;2023-02-22T00:15:15;1022.45;;;888.42;;
13368;SDS011;6753;52.520;13.450;2023-02-22T00:15:27;1025.93;;;887.70;;
13368;SDS011;6753;52.520;13.450;2023-02-22T00:15:37;1023.30;;;886.08;;
13368;SDS011;6753;52.520;13.450;2023-02-22T00:15:50;1021.88;;;886.25;;
13368;SDS011;6753;52.520;13.450;2023-02-22T00:16:01;1021.83;;;883.20;;
13368;SDS011;6753;52.520;13.450;2023-02-22T00:16:12;1021.20;;;879.80;;
13368;SDS011;6753;52.520;13.450;2023-02-22T00:16:25;1013.00;;;878.03;;
13368;SDS011;6753;52.520;13.450;2023-02-22T00:16:36;1006.78;;;874.50;;
13368;SDS011;6753;52.520;13.450;2023-02-22T00:16:48;1004.28;;;871.42;;
13368;SDS011;6753;52.520;13.450;2023-02-22T00:16:59;999.30;;;867.30;;
13368;SDS011;6753;52.520;13.450;2023-02-22T00:17:11;994.65;;;867.60;;
13368;SDS011;6753;52.520;13.450;2023-02-22T00:17:23;993.03;;;865.55;;
13368;SDS011;6753;52.520;13.450;2023-02-22T00:17:33;992.35;;;865.58;;
13368;SDS011;6753;52.520;13.450;2023-02-22T00:17:45;987.28;;;864.55;;
13368;SDS011;6753;52.520;13.450;2023-02-22T00:17:56;984.85;;;864.25;;
13368;SDS011;6753;52.520;13.450;2023-02-22T00:18:07;982.45;;;863.67;;
13368;SDS011;6753;52.520;13.450;2023-02-22T00:18:20;981.47;;;863.75;;
13368;SDS011;6753;52.520;13.450;2023-02-22T00:18:31;983.40;;;864.25;;
13368;SDS011;6753;52.520;13.450;2023-02-22T00:18:42;986.13;;;865.13;;
13368;SDS011;6753;52.520;13.450;2023-02-22T00:18:54;986.72;;;866.67;;
13368;SDS011;6753;52.520;13.450;2023-02-22T00:19:04;988.00;;;867.33;;
13368;SDS011;6753;52.520;13.450;2023-02-22T00:19:16;991.05;;;868.30;;
13368;SDS011;6753;52.520;13.450;2023-02-22T00:19:26;993.23;;;869.43;;
13368;SDS011;6753;52.520;13.450;2023-02-22T00:19:39;988.35;;;867.55;;
13368;SDS011;6753;52.520;13.450;2023-02-22T00:19:50;988.10;;;867.03;;
13368;SDS011;6753;52.520;13.450;2023-02-22T00:20:01;985.97;;;866.22;;
13368;SDS011;6753;52.520;13.450;2023-02-22T00:20:15;983.00;;;864.70;;
13368;SDS011;6753;52.520;13.450;2023-02-22T00:20:28;979.38;;;861.97;;
13368;SDS011;6753;52.520;13.450;2023-02-22T00:20:39;979.35;;;861.75;;
13368;SDS011;6753;52.520;13.450;2023-02-22T00:20:50;981.95;;;860.35;;
13368;SDS011;6753;52.520;13.450;2023-02-22T00:21:01;983.63;;;861.15;;
13368;SDS011;6753;52.520;13.450;2023-02-22T00:21:12;983.50;;;860.00;;
13368;SDS011;6753;52.520;13.450;2023-02-22T00:21:23;984.25;;;861.13;;
13368;SDS011;6753;52.520;13.450;2023-02-22T00:21:34;986.90;;;862.30;;
13368;SDS011;6753;52.520;13.450;2023-02-22T00:21:50;986.63;;;864.38;;
13368;SDS011;6753;52.520;13.450;2023-02-22T00:22:02;983.78;;;864.33;;
13368;SDS011;6753;52.520;13.450;2023-02-22T00:22:12;983.67;;;865.00;;
13368;SDS011;6753;52.520;13.450;2023-02-22T00:22:28;981.15;;;864.28;;
13368;SDS011;6753;52.520;13.450;2023-02-22T00:22:38;977.00;;;862.13;;
13368;SDS011;6753;52.520;13.450;2023-02-22T00:22:50;973.50;;;861.00;;
13368;SDS011;6753;52.520;13.450;2023-02-22T00:23:05;974.55;;;861.20;;
13368;SDS011;6753;52.520;13.450;2023-02-22T00:23:18;979.92;;;863.97;;
13368;SDS011;6753;52.520;13.450;2023-02-22T00:23:34;988.20;;;866.15;;
13368;SDS011;6753;52.520;13.450;2023-02-22T00:23:48;989.67;;;867.08;;
13368;SDS011;6753;52.520;13.450;2023-02-22T00:23:59;990.00;;;866.60;;
13368;SDS011;6753;52.520;13.450;2023-02-22T00:24:16;987.40;;;865.25;;
13368;SDS011;6753;52.520;13.450;2023-02-22T00:24:32;985.40;;;865.72;;
13368;SDS011;6753;52.520;13.450;2023-02-22T00:24:45;988.95;;;865.83;;
13368;SDS011;6753;52.520;13.450;2023-02-22T00:24:57;987.85;;;866.20;;
13368;SDS011;6753;52.520;13.450;2023-02-22T00:25:08;986.58;;;865.42;;
13368;SDS011;6753;52.520;13.450;2023-02-22T00:25:21;989.58;;;868.45;;
13368;SDS011;6753;52.520;13.450;2023-02-22T00:25:32;986.70;;;868.13;;
13368;SDS011;6753;52.520;13.450;2023-02-22T00:25:44;983.65;;;868.80;;
13368;SDS011;6753;52.520;13.450;2023-02-22T00:25:56;985.13;;;869.58;;
13368;SDS011;6753;52.520;13.450;2023-02-22T00:26:08;987.63;;;869.92;;
13368;SDS011;6753;52.520;13.450;2023-02-22T00:26:22;980.65;;;864.58;;
13368;SDS011;6753;52.520;13.450;2023-02-22T00:26:33;979.25;;;863.70;;
13368;SDS011;6753;52.520;13.450;2023-02-22T00:26:44;977.08;;;861.38;;
13368;SDS011;6753;52.520;13.450;2023-02-22T00:26:56;973.70;;;860.20;;
13368;SDS011;6753;52.520;13.450;2023-02-22T00:27:06;970.22;;;859.90;;
13368;SDS011;6753;52.520;13.450;2023-02-22T00:27:17;969.10;;;859.37;;
13368;SDS011;6753;52.520;13.450;2023-02-22T00:27:28;969.50;;;857.72;;
13368;SDS011;6753;52.520;13.450;2023-02-22T00:27:39;968.17;;;856.83;;
13368;SDS011;6753;52.520;13.450;2023-02-22T00:27:50;967.28;;;857.10;;
13368;SDS011;6753;52.520;13.450;2023-02-22T00:28:01;970.05;;;858.20;;
13368;SDS011;6753;52.520;13.450;2023-02-22T00:28:14;967.65;;;857.92;;
13368;SDS011;6753;52.520;13.450;2023-02-22T00:28:26;966.72;;;859.47;;
13368;SDS011;6753;52.520;13.450;2023-02-22T00:28:37;966.80;;;859.70;;
13368;SDS011;6753;52.520;13.450;2023-02-22T00:28:49;966.03;;;859.22;;
13368;SDS011;6753;52.520;13.450;2023-02-22T00:29:01;963.80;;;857.15;;
13368;SDS011;6753;52.520;13.450;2023-02-22T00:29:12;963.28;;;856.58;;
13368;SDS011;6753;52.520;13.450;2023-02-22T00:29:23;962.28;;;855.47;;
13368;SDS011;6753;52.520;13.450;2023-02-22T00:29:35;962.72;;;855.60;;
13368;SDS011;6753;52.520;13.450;2023-02-22T00:29:46;962.30;;;854.65;;
13368;SDS011;6753;52.520;13.450;2023-02-22T00:29:57;963.15;;;853.03;;
13368;SDS011;6753;52.520;13.450;2023-02-22T00:30:09;964.78;;;852.67;;
13368;SDS011;6753;52.520;13.450;2023-02-22T00:30:28;968.13;;;851.85;;
13368;SDS011;6753;52.520;13.450;2023-02-22T00:30:40;968.15;;;853.15;;
13368;SDS011;6753;52.520;13.450;2023-02-22T00:30:52;969.17;;;853.50;;
13368;SDS011;6753;52.520;13.450;2023-02-22T00:31:04;968.03;;;855.05;;
13368;SDS011;6753;52.520;13.450;2023-02-22T00:31:15;960.53;;;853.42;;
13368;SDS011;6753;52.520;13.450;2023-02-22T00:31:27;961.50;;;854.25;;
13368;SDS011;6753;52.520;13.450;2023-02-22T00:31:38;959.30;;;852.55;;
13368;SDS011;6753;52.520;13.450;2023-02-22T00:31:50;958.63;;;852.28;;
13368;SDS011;6753;52.520;13.450;2023-02-22T00:32:01;958.53;;;852.38;;
13368;SDS011;6753;52.520;13.450;2023-02-22T00:32:12;960.47;;;854.05;;
13368;SDS011;6753;52.520;13.450;2023-02-22T00:32:24;958.75;;;852.33;;
13368;SDS011;6753;52.520;13.450;2023-02-22T00:32:35;962.30;;;851.10;;
13368;SDS011;6753;52.520;13.450;2023-02-22T00:32:46;962.60;;;851.72;;
13368;SDS011;6753;52.520;13.450;2023-02-22T00:32:57;967.97;;;853.00;;
13368;SDS011;6753;52.520;13.450;2023-02-22T00:33:10;969.70;;;852.10;;
13368;SDS011;6753;52.520;13.450;2023-02-22T00:33:21;970.92;;;852.38;;
13368;SDS011;6753;52.520;13.450;2023-02-22T00:33:32;972.78;;;854.92;;
13368;SDS011;6753;52.520;13.450;2023-02-22T00:33:45;975.22;;;856.10;;
13368;SDS011;6753;52.520;13.450;2023-02-22T00:33:56;972.20;;;855.97;;
13368;SDS011;6753;52.520;13.450;2023-02-22T00:34:07;971.15;;;856.97;;
13368;SDS011;6753;52.520;13.450;2023-02-22T00:34:17;967.70;;;857.47;;
13368;SDS011;6753;52.520;13.450;2023-02-22T00:34:28;964.78;;;857.08;;
13368;SDS011;6753;52.520;13.450;2023-02-22T00:34:40;965.03;;;857.97;;
13368;SDS011;6753;52.520;13.450;2023-02-22T00:34:52;963.78;;;856.83;;
13368;SDS011;6753;52.520;13.450;2023-02-22T00:35:04;964.85;;;857.40;;
13368;SDS011;6753;52.520;13.450;2023-02-22T00:35:17;968.33;;;858.95;;
13368;SDS011;6753;52.520;13.450;2023-02-22T00:35:30;967.88;;;857.97;;
13368;SDS011;6753;52.520;13.450;2023-02-22T00:35:41;963.78;;;855.95;;
13368;SDS011;6753;52.520;13.450;2023-02-22T00:35:54;963.92;;;856.40;;
13368;SDS011;6753;52.520;13.450;2023-02-22T00:36:06;963.27;;;855.47;;
13368;SDS011;6753;52.520;13.450;2023-02-22T00:36:18;959.47;;;853.13;;
13368;SDS011;6753;52.520;13.450;2023-02-22T00:36:29;960.13;;;853.53;;
13368;SDS011;6753;52.520;13.450;2023-02-22T00:36:43;962.47;;;854.60;;
13368;SDS011;6753;52.520;13.450;2023-02-22T00:36:55;967.33;;;856.65;;
13368;SDS011;6753;52.520;13.450;2023-02-22T00:37:05;967.23;;;857.60;;
13368;SDS011;6753;52.520;13.450;2023-02-22T00:37:16;969.83;;;859.72;;
13368;SDS011;6753;52.520;13.450;2023-02-22T00:37:27;968.70;;;860.53;;
13368;SDS011;6753;52.520;13.450;2023-02-22T00:37:40;969.42;;;861.92;;
13368;SDS011;6753;52.520;13.450;2023-02-22T00:37:52;967.85;;;861.00;;
13368;SDS011;6753;52.520;13.450;2023-02-22T00:38:04;967.55;;;860.65;;
13368;SDS011;6753;52.520;13.450;2023-02-22T00:38:17;967.60;;;860.60;;
13368;SDS011;6753;52.520;13.450;2023-02-22T00:38:28;972.17;;;863.38;;
13368;SDS011;6753;52.520;13.450;2023-02-22T00:38:39;977.72;;;865.95;;
13368;SDS011;6753;52.520;13.450;2023-02-22T00:38:50;984.50;;;868.25;;
13368;SDS011;6753;52.520;13.450;2023-02-22T00:39:02;989.33;;;871.38;;
13368;SDS011;6753;52.520;13.450;2023-02-22T00:39:13;995.22;;;873.88;;
13368;SDS011;6753;52.520;13.450;2023-02-22T00:39:24;997.30;;;873.97;;
13368;SDS011;6753;52.520;13.450;2023-02-22T00:39:34;996.45;;;874.53;;
13368;SDS011;6753;52.520;13.450;2023-02-22T00:39:45;995.72;;;874.40;;
13368;SDS011;6753;52.520;13.450;2023-02-22T00:39:57;989.83;;;872.30;;
13368;SDS011;6753;52.520;13.450;2023-02-22T00:40:08;980.88;;;870.00;;
13368;SDS011;6753;52.520;13.450;2023-02-22T00:40:20;979.05;;;867.63;;
13368;SDS011;6753;52.520;13.450;2023-02-22T00:40:33;973.33;;;864.10;;
13368;SDS011;6753;52.520;13.450;2023-02-22T00:40:45;972.08;;;862.72;;
13368;SDS011;6753;52.520;13.450;2023-02-22T00:40:56;971.92;;;861.58;;
13368;SDS011;6753;52.520;13.450;2023-02-22T00:41:07;975.17;;;861.50;;
13368;SDS011;6753;52.520;13.450;2023-02-22T00:41:18;974.85;;;860.28;;
13368;SDS011;6753;52.520;13.450;2023-02-22T00:41:29;975.67;;;860.37;;
13368;SDS011;6753;52.520;13.450;2023-02-22T00:41:40;975.15;;;860.65;;
13368;SDS011;6753;52.520;13.450;2023-02-22T00:41:50;972.92;;;859.63;;
13368;SDS011;6753;52.520;13.450;2023-02-22T00:42:01;975.15;;;860.83;;
13368;SDS011;6753;52.520;13.450;2023-02-22T00:42:13;976.22;;;862.75;;
13368;SDS011;6753;52.520;13.450;2023-02-22T00:42:24;975.88;;;866.40;;
13368;SDS011;6753;52.520;13.450;2023-02-22T00:42:35;974.53;;;865.13;;
13368;SDS011;6753;52.520;13.450;2023-02-22T00:42:47;978.08;;;865.30;;
13368;SDS011;6753;52.520;13.450;2023-02-22T00:42:58;976.60;;;865.67;;
13368;SDS011;6753;52.520;13.450;2023-02-22T00:43:10;977.53;;;866.38;;
13368;SDS011;6753;52.520;13.450;2023-02-22T00:43:20;977.03;;;866.22;;
13368;SDS011;6753;52.520;13.450;2023-02-22T00:43:34;980.25;;;868.10;;
13368;SDS011;6753;52.520;13.450;2023-02-22T00:43:44;979.80;;;870.30;;
13368;SDS011;6753;52.520;13.450;2023-02-22T00:43:57;982.55;;;871.75;;
13368;SDS011;6753;52.520;13.450;2023-02-22T00:44:08;984.37;;;871.80;;
13368;SDS011;6753;52.520;13.450;2023-02-22T00:44:19;986.60;;;873.25;;
13368;SDS011;6753;52.520;13.450;2023-02-22T00:44:30;986.35;;;874.78;;
13368;SDS011;6753;52.520;13.450;2023-02-22T00:44:42;987.92;;;874.97;;
13368;SDS011;6753;52.520;13.450;2023-02-22T00:44:54;988.60;;;875.22;;
13368;SDS011;6753;52.520;13.450;2023-02-22T00:45:05;989.20;;;875.45;;
13368;SDS011;6753;52.520;13.450;2023-02-22T00:45:17;989.00;;;873.55;;
13368;SDS011;6753;52.520;13.450;2023-02-22T00:45:31;988.30;;;872.47;;
13368;SDS011;6753;52.520;13.450;2023-02-22T00:45:43;987.88;;;872.30;;
13368;SDS011;6753;52.520;13.450;2023-02-22T00:45:54;989.05;;;872.47;;
13368;SDS011;6753;52.520;13.450;2023-02-22T00:46:06;990.05;;;873.20;;
13368;SDS011;6753;52.520;13.450;2023-02-22T00:46:16;986.40;;;871.40;;
13368;SDS011;6753;52.520;13.450;2023-02-22T00:46:28;984.80;;;869.60;;
13368;SDS011;6753;52.520;13.450;2023-02-22T00:46:39;982.83;;;867.65;;
13368;SDS011;6753;52.520;13.450;2023-02-22T00:46:51;981.03;;;866.88;;
13368;SDS011;6753;52.520;13.450;2023-02-22T00:47:02;975.60;;;864.55;;
13368;SDS011;6753;52.520;13.450;2023-02-22T00:47:13;977.67;;;866.80;;
13368;SDS011;6753;52.520;13.450;2023-02-22T00:47:24;978.10;;;868.03;;
13368;SDS011;6753;52.520;13.450;2023-02-22T00:47:36;981.17;;;870.67;;
13368;SDS011;6753;52.520;13.450;2023-02-22T00:47:47;981.58;;;871.78;;
13368;SDS011;6753;52.520;13.450;2023-02-22T00:47:58;984.30;;;872.10;;
13368;SDS011;6753;52.520;13.450;2023-02-22T00:48:10;983.85;;;872.50;;
13368;SDS011;6753;52.520;13.450;2023-02-22T00:48:21;983.90;;;872.30;;
13368;SDS011;6753;52.520;13.450;2023-02-22T00:48:32;983.67;;;871.83;;
13368;SDS011;6753;52.520;13.450;2023-02-22T00:48:43;985.77;;;872.97;;
13368;SDS011;6753;52.520;13.450;2023-02-22T00:48:53;989.08;;;872.63;;
13368;SDS011;6753;52.520;13.450;2023-02-22T00:49:04;989.70;;;873.30;;
13368;SDS011;6753;52.520;13.450;2023-02-22T00:49:15;989.08;;;874.03;;
13368;SDS011;6753;52.520;13.450;2023-02-22T00:49:26;989.50;;;872.80;;
13368;SDS011;6753;52.520;13.450;2023-02-22T00:49:37;989.17;;;872.35;;
13368;SDS011;6753;52.520;13.450;2023-02-22T00:49:49;987.55;;;871.72;;
13368;SDS011;6753;52.520;13.450;2023-02-22T00:49:59;985.85;;;871.55;;
13368;SDS011;6753;52.520;13.450;2023-02-22T00:50:10;986.15;;;871.22;;
13368;SDS011;6753;52.520;13.450;2023-02-22T00:50:22;986.72;;;872.63;;
13368;SDS011;6753;52.520;13.450;2023-02-22T00:50:34;987.63;;;873.15;;
13368;SDS011;6753;52.520;13.450;2023-02-22T00:50:45;983.40;;;872.25;;
13368;SDS011;6753;52.520;13.450;2023-02-22T00:50:57;981.40;;;870.67;;
13368;SDS011;6753;52.520;13.450;2023-02-22T00:51:08;977.27;;;868.77;;
13368;SDS011;6753;52.520;13.450;2023-02-22T00:51:20;976.28;;;866.47;;
13368;SDS011;6753;52.520;13.450;2023-02-22T00:51:30;974.15;;;865.40;;
13368;SDS011;6753;52.520;13.450;2023-02-22T00:51:42;976.00;;;865.50;;
13368;SDS011;6753;52.520;13.450;2023-02-22T00:51:53;980.47;;;866.00;;
13368;SDS011;6753;52.520;13.450;2023-02-22T00:52:04;981.47;;;868.13;;
13368;SDS011;6753;52.520;13.450;2023-02-22T00:52:15;980.47;;;867.80;;
13368;SDS011;6753;52.520;13.450;2023-02-22T00:52:26;983.60;;;868.85;;
13368;SDS011;6753;52.520;13.450;2023-02-22T00:52:37;983.80;;;870.92;;
13368;SDS011;6753;52.520;13.450;2023-02-22T00:52:48;981.58;;;871.28;;
13368;SDS011;6753;52.520;13.450;2023-02-22T00:53:00;980.95;;;871.13;;
13368;SDS011;6753;52.520;13.450;2023-02-22T00:53:14;986.90;;;872.60;;
13368;SDS011;6753;52.520;13.450;2023-02-22T00:53:25;985.83;;;872.67;;
13368;SDS011;6753;52.520;13.450;2023-02-22T00:53:35;987.38;;;873.33;;
13368;SDS011;6753;52.520;13.450;2023-02-22T00:53:46;991.03;;;875.33;;
13368;SDS011;6753;52.520;13.450;2023-02-22T00:53:57;997.58;;;877.00;;
13368;SDS011;6753;52.520;13.450;2023-02-22T00:54:08;1001.90;;;879.60;;
13368;SDS011;6753;52.520;13.450;2023-02-22T00:54:19;1004.40;;;881.53;;
13368;SDS011;6753;52.520;13.450;2023-02-22T00:54:30;1004.03;;;881.85;;
13368;SDS011;6753;52.520;13.450;2023-02-22T00:54:41;1007.13;;;882.53;;
13368;SDS011;6753;52.520;13.450;2023-02-22T00:54:53;1003.03;;;880.42;;
13368;SDS011;6753;52.520;13.450;2023-02-22T00:55:05;995.50;;;879.20;;
13368;SDS011;6753;52.520;13.450;2023-02-22T00:55:19;992.47;;;877.85;;
13368;SDS011;6753;52.520;13.450;2023-02-22T00:55:33;993.10;;;876.05;;
13368;SDS011;6753;52.520;13.450;2023-02-22T00:55:45;991.83;;;873.67;;
13368;SDS011;6753;52.520;13.450;2023-02-22T00:55:55;989.93;;;872.90;;
13368;SDS011;6753;52.520;13.450;2023-02-22T00:56:06;989.58;;;871.80;;
13368;SDS011;6753;52.520;13.450;2023-02-22T00:56:20;986.80;;;870.30;;
13368;SDS011;6753;52.520;13.450;2023-02-22T00:56:32;985.33;;;870.70;;
13368;SDS011;6753;52.520;13.450;2023-02-22T00:56:43;980.55;;;869.80;;
13368;SDS011;6753;52.520;13.450;2023-02-22T00:56:54;979.17;;;870.47;;
13368;SDS011;6753;52.520;13.450;2023-02-22T00:57:05;980.38;;;871.60;;
13368;SDS011;6753;52.520;13.450;2023-02-22T00:57:15;980.85;;;872.17;;
13368;SDS011;6753;52.520;13.450;2023-02-22T00:57:28;982.55;;;873.53;;
13368;SDS011;6753;52.520;13.450;2023-02-22T00:57:39;987.25;;;875.20;;
13368;SDS011;6753;52.520;13.450;2023-02-22T00:57:49;991.72;;;876.03;;
13368;SDS011;6753;52.520;13.450;2023-02-22T00:58:01;996.63;;;875.90;;
13368;SDS011;6753;52.520;13.450;2023-02-22T00:58:13;1005.00;;;877.28;;
13368;SDS011;6753;52.520;13.450;2023-02-22T00:58:24;1008.60;;;878.70;;
13368;SDS011;6753;52.520;13.450;2023-02-22T00:58:35;1008.85;;;879.83;;
13368;SDS011;6753;52.520;13.450;2023-02-22T00:58:46;1013.67;;;882.58;;
13368;SDS011;6753;52.520;13.450;2023-02-22T00:58:57;1017.33;;;885.17;;
13368;SDS011;6753;52.520;13.450;2023-02-22T00:59:07;1020.95;;;888.85;;
13368;SDS011;6753;52.520;13.450;2023-02-22T00:59:18;1018.88;;;889.63;;
13368;SDS011;6753;52.520;13.450;2023-02-22T00:59:30;1020.63;;;890.20;;
13368;SDS011;6753;52.520;13.450;2023-02-22T00:59:41;1021.77;;;891.63;;
13368;SDS011;6753;52.520;13.450;2023-02-22T00:59:52;1016.13;;;888.40;;
13368;SDS011;6753;52.520;13.450;2023-02-22T01:00:03;1009.55;;;885.25;;
13368;SDS011;6753;52.520;13.450;2023-02-22T01:00:21;1008.65;;;883.97;;
13368;SDS011;6753;52.520;13.450;2023-02-22T01:00:35;1003.00;;;881.45;;
13368;SDS011;6753;52.520;13.450;2023-02-22T01:00:47;996.83;;;877.85;;
13368;SDS011;6753;52.520;13.450;2023-02-22T01:00:59;994.30;;;876.63;;
13368;SDS011;6753;52.520;13.450;2023-02-22T01:01:10;988.83;;;872.88;;
13368;SDS011;6753;52.520;13.450;2023-02-22T01:01:20;983.55;;;869.85;;
13368;SDS011;6753;52.520;13.450;2023-02-22T01:01:32;987.53;;;870.90;;
13368;SDS011;6753;52.520;13.450;2023-02-22T01:01:43;990.47;;;872.83;;
13368;SDS011;6753;52.520;13.450;2023-02-22T01:01:55;997.20;;;876.57;;
13368;SDS011;6753;52.520;13.450;2023-02-22T01:02:07;1001.17;;;879.75;;
13368;SDS011;6753;52.520;13.450;2023-02-22T01:02:18;1010.67;;;882.00;;
13368;SDS011;6753;52.520;13.450;2023-02-22T01:02:29;1004.42;;;880.35;;
13368;SDS011;6753;52.520;13.450;2023-02-22T01:02:41;1006.33;;;881.38;;
13368;SDS011;6753;52.520;13.450;2023-02-22T01:02:53;1003.90;;;879.55;;
13368;SDS011;6753;52.520;13.450;2023-02-22T01:03:06;1001.33;;;878.63;;
13368;SDS011;6753;52.520;13.450;2023-02-22T01:03:19;997.10;;;878.95;;
13368;SDS011;6753;52.520;13.450;2023-02-22T01:03:30;1004.45;;;881.67;;
13368;SDS011;6753;52.520;13.450;2023-02-22T01:03:44;1005.70;;;881.13;;
13368;SDS011;6753;52.520;13.450;2023-02-22T01:03:55;1005.33;;;881.55;;
13368;SDS011;6753;52.520;13.450;2023-02-22T01:04:06;1010.65;;;882.05;;
13368;SDS011;6753;52.520;13.450;2023-02-22T01:04:17;1017.28;;;884.85;;
13368;SDS011;6753;52.520;13.450;2023-02-22T01:04:27;1018.37;;;885.93;;
13368;SDS011;6753;52.520;13.450;2023-02-22T01:04:38;1018.38;;;887.97;;
13368;SDS011;6753;52.520;13.450;2023-02-22T01:04:49;1020.88;;;889.45;;
13368;SDS011;6753;52.520;13.450;2023-02-22T01:05:00;1023.65;;;891.95;;
13368;SDS011;6753;52.520;13.450;2023-02-22T01:05:12;1025.97;;;894.93;;
13368;SDS011;6753;52.520;13.450;2023-02-22T01:05:26;1027.43;;;897.30;;
13368;SDS011;6753;52.520;13.450;2023-02-22T01:05:37;1027.80;;;897.17;;
13368;SDS011;6753;52.520;13.450;2023-02-22T01:05:48;1030.63;;;897.72;;
13368;SDS011;6753;52.520;13.450;2023-02-22T01:05:59;1030.60;;;896.55;;
13368;SDS011;6753;52.520;13.450;2023-02-22T01:06:10;1026.10;;;893.00;;
13368;SDS011;6753;52.520;13.450;2023-02-22T01:06:20;1019.33;;;890.03;;
13368;SDS011;6753;52.520;13.450;2023-02-22T01:06:31;1019.50;;;890.22;;
13368;SDS011;6753;52.520;13.450;2023-02-22T01:06:43;1017.70;;;890.40;;
13368;SDS011;6753;52.520;13.450;2023-02-22T01:06:54;1011.90;;;889.20;;